createdAt,value
2019-03-30T11:44:49.787Z,22
2019-03-30T11:46:50.387Z,22
2019-03-30T11:48:49.724Z,32
2019-03-30T11:50:50.237Z,26
2019-03-30T11:52:49.793Z,26
2019-03-30T11:54:50.231Z,23
2019-03-30T11:56:49.814Z,29
2019-03-30T11:58:50.350Z,32
2019-03-30T12:00:49.827Z,23
2019-03-30T12:02:50.317Z,23
2019-03-30T12:04:50.355Z,25
2019-03-30T12:06:52.448Z,24
2019-03-30T12:08:49.962Z,23
2019-03-30T12:10:50.523Z,19
2019-03-30T12:12:50.087Z,30
2019-03-30T12:14:50.551Z,27
2019-03-30T12:16:50.121Z,24
2019-03-30T12:18:50.529Z,30
2019-03-30T12:20:50.112Z,19
2019-03-30T12:22:50.526Z,20
2019-03-30T12:24:50.009Z,33
2019-03-30T12:26:50.501Z,25
2019-03-30T12:28:49.902Z,26
2019-03-30T12:30:50.308Z,30
2019-03-30T12:32:49.771Z,28
2019-03-30T12:34:50.689Z,26
2019-03-30T12:36:50.413Z,25
2019-03-30T12:38:49.955Z,15
2019-03-30T12:40:50.544Z,21
2019-03-30T12:42:50.010Z,0
2019-03-30T12:44:50.411Z,0
2019-03-30T12:46:49.984Z,0
2019-03-30T12:48:50.601Z,0
2019-03-30T12:50:50.076Z,3
2019-03-30T12:52:50.457Z,3
2019-03-30T13:10:50.701Z,22
2019-03-30T13:12:50.105Z,25
2019-03-30T13:14:50.477Z,1
2019-03-30T13:16:49.989Z,0
2019-03-30T13:18:50.557Z,0
2019-03-30T13:20:49.996Z,0
2019-03-30T13:22:50.390Z,0
2019-03-30T13:24:50.655Z,0
2019-03-30T13:26:50.318Z,0
2019-03-30T13:28:50.639Z,0
2019-03-30T13:30:50.028Z,0
2019-03-30T13:32:53.857Z,0
2019-03-30T13:34:50.691Z,0
2019-03-30T13:36:50.460Z,0
2019-03-30T13:38:49.860Z,0
2019-03-30T13:40:50.338Z,0
2019-03-30T13:42:50.703Z,0
2019-03-30T13:44:50.072Z,0
2019-03-30T13:46:50.627Z,0
2019-03-30T13:48:50.032Z,0
2019-03-30T13:50:50.408Z,0
2019-03-30T13:52:49.796Z,0
2019-03-30T13:54:50.256Z,0
2019-03-30T13:56:49.846Z,0
2019-03-30T13:58:50.273Z,0
2019-03-30T14:00:50.643Z,0
2019-03-30T14:02:50.092Z,0
2019-03-30T14:04:52.890Z,0
2019-03-30T14:06:50.398Z,0
2019-03-30T14:08:49.870Z,0
2019-03-30T14:10:50.293Z,0
2019-03-30T14:12:49.713Z,0
2019-03-30T14:14:50.114Z,0
2019-03-30T14:16:49.784Z,0
2019-03-30T14:18:50.186Z,0
2019-03-30T14:20:50.538Z,0
2019-03-30T14:22:50.017Z,0
2019-03-30T14:24:50.481Z,0
2019-03-30T14:26:50.022Z,0
2019-03-30T14:28:50.412Z,0
2019-03-30T14:30:49.795Z,0
2019-03-30T14:32:50.215Z,0
2019-03-30T14:34:50.122Z,9
2019-03-30T14:36:50.693Z,0
2019-03-30T14:38:50.112Z,0
2019-03-30T14:40:50.607Z,0
2019-03-30T14:42:50.090Z,0
2019-03-30T14:44:50.446Z,0
2019-03-30T14:46:49.968Z,0
2019-03-30T14:48:50.416Z,0
2019-03-30T14:50:49.821Z,0
2019-03-30T14:52:50.178Z,0
2019-03-30T14:54:53.607Z,0
2019-03-30T14:56:50.101Z,0
2019-03-30T14:58:50.604Z,0
2019-03-30T15:00:50.268Z,0
2019-03-30T15:02:50.606Z,0
2019-03-30T15:04:50.692Z,0
2019-03-30T15:06:50.292Z,0
2019-03-30T15:08:49.700Z,0
2019-03-30T15:10:50.071Z,0
2019-03-30T15:12:50.478Z,20
2019-03-30T15:14:49.957Z,17
2019-03-30T15:16:50.483Z,19
2019-03-30T15:18:50.041Z,20
2019-03-30T15:20:50.423Z,25
2019-03-30T15:22:49.842Z,29
2019-03-30T15:24:50.290Z,27
2019-03-30T15:27:00.871Z,26
2019-03-30T15:28:50.275Z,31
2019-03-30T15:30:50.638Z,31
2019-03-30T15:32:50.029Z,29
2019-03-30T15:34:49.783Z,29
2019-03-30T15:36:50.270Z,22
2019-03-30T15:38:50.657Z,23
2019-03-30T15:40:49.991Z,28
2019-03-30T15:42:50.451Z,31
2019-03-30T15:44:49.796Z,27
2019-03-30T15:46:50.383Z,22
2019-03-30T15:48:49.810Z,29
2019-03-30T15:50:50.224Z,22
2019-03-30T15:52:50.582Z,28
2019-03-30T15:54:49.962Z,23
2019-03-30T15:56:50.633Z,27
2019-03-30T15:58:49.965Z,27
